sensor_id;sensor_type;location;lat;lon;timestamp;P1;durP1;ratioP1;P2;durP2;ratioP2
438;SDS011;206;48.782;9.252;2022-07-10T00:00:12;5.03;;;4.73;;
438;SDS011;206;48.782;9.252;2022-07-10T00:02:39;3.73;;;3.53;;
438;SDS011;206;48.782;9.252;2022-07-10T00:05:06;4.57;;;4.13;;
438;SDS011;206;48.782;9.252;2022-07-10T00:07:33;4.37;;;3.53;;
438;SDS011;206;48.782;9.252;2022-07-10T00:09:59;4.70;;;4.40;;
438;SDS011;206;48.782;9.252;2022-07-10T00:12:25;4.03;;;3.80;;
438;SDS011;206;48.782;9.252;2022-07-10T00:14:51;3.77;;;3.57;;
438;SDS011;206;48.782;9.252;2022-07-10T00:17:17;4.80;;;3.90;;
438;SDS011;206;48.782;9.252;2022-07-10T00:19:43;4.80;;;4.50;;
438;SDS011;206;48.782;9.252;2022-07-10T00:22:08;3.83;;;3.63;;
438;SDS011;206;48.782;9.252;2022-07-10T00:24:34;3.60;;;3.40;;
438;SDS011;206;48.782;9.252;2022-07-10T00:27:00;3.60;;;3.37;;
438;SDS011;206;48.782;9.252;2022-07-10T00:29:25;4.60;;;4.30;;
438;SDS011;206;48.782;9.252;2022-07-10T00:31:51;4.23;;;3.97;;
438;SDS011;206;48.782;9.252;2022-07-10T00:34:17;3.90;;;3.70;;
438;SDS011;206;48.782;9.252;2022-07-10T00:36:42;3.27;;;3.07;;
438;SDS011;206;48.782;9.252;2022-07-10T00:39:08;3.93;;;3.73;;
438;SDS011;206;48.782;9.252;2022-07-10T00:41:34;3.63;;;3.43;;
438;SDS011;206;48.782;9.252;2022-07-10T00:44:00;3.40;;;3.20;;
438;SDS011;206;48.782;9.252;2022-07-10T00:46:27;3.73;;;3.53;;
438;SDS011;206;48.782;9.252;2022-07-10T00:48:54;3.63;;;3.43;;
438;SDS011;206;48.782;9.252;2022-07-10T00:51:21;3.63;;;3.43;;
438;SDS011;206;48.782;9.252;2022-07-10T00:53:49;3.90;;;3.70;;
438;SDS011;206;48.782;9.252;2022-07-10T00:56:16;4.00;;;3.80;;
438;SDS011;206;48.782;9.252;2022-07-10T00:58:45;4.50;;;3.97;;
438;SDS011;206;48.782;9.252;2022-07-10T01:01:11;4.43;;;3.73;;
438;SDS011;206;48.782;9.252;2022-07-10T01:03:37;3.23;;;3.03;;
438;SDS011;206;48.782;9.252;2022-07-10T01:06:03;3.87;;;3.67;;
438;SDS011;206;48.782;9.252;2022-07-10T01:08:28;4.23;;;3.97;;
438;SDS011;206;48.782;9.252;2022-07-10T01:10:55;3.47;;;3.30;;
438;SDS011;206;48.782;9.252;2022-07-10T01:13:21;4.40;;;4.07;;
438;SDS011;206;48.782;9.252;2022-07-10T01:15:47;5.00;;;4.30;;
438;SDS011;206;48.782;9.252;2022-07-10T01:18:13;4.53;;;4.23;;
438;SDS011;206;48.782;9.252;2022-07-10T01:20:42;4.03;;;3.83;;
438;SDS011;206;48.782;9.252;2022-07-10T01:23:08;4.17;;;3.93;;
438;SDS011;206;48.782;9.252;2022-07-10T01:25:33;4.00;;;3.60;;
438;SDS011;206;48.782;9.252;2022-07-10T01:27:59;5.83;;;3.73;;
438;SDS011;206;48.782;9.252;2022-07-10T01:30:25;3.70;;;3.50;;
438;SDS011;206;48.782;9.252;2022-07-10T01:32:51;3.93;;;3.73;;
438;SDS011;206;48.782;9.252;2022-07-10T01:35:19;6.30;;;3.50;;
438;SDS011;206;48.782;9.252;2022-07-10T01:37:45;3.90;;;3.70;;
438;SDS011;206;48.782;9.252;2022-07-10T01:40:11;4.90;;;4.10;;
438;SDS011;206;48.782;9.252;2022-07-10T01:42:37;4.43;;;3.97;;
438;SDS011;206;48.782;9.252;2022-07-10T01:45:05;9.13;;;4.20;;
438;SDS011;206;48.782;9.252;2022-07-10T01:47:34;3.87;;;3.67;;
438;SDS011;206;48.782;9.252;2022-07-10T01:50:01;4.17;;;3.90;;
438;SDS011;206;48.782;9.252;2022-07-10T01:52:27;4.60;;;4.30;;
438;SDS011;206;48.782;9.252;2022-07-10T01:54:53;5.80;;;4.70;;
438;SDS011;206;48.782;9.252;2022-07-10T01:57:19;4.40;;;4.10;;
438;SDS011;206;48.782;9.252;2022-07-10T01:59:44;4.43;;;4.13;;
438;SDS011;206;48.782;9.252;2022-07-10T02:02:10;5.30;;;5.00;;
438;SDS011;206;48.782;9.252;2022-07-10T02:04:36;4.60;;;4.30;;
438;SDS011;206;48.782;9.252;2022-07-10T02:07:08;4.53;;;4.23;;
438;SDS011;206;48.782;9.252;2022-07-10T02:09:34;5.30;;;5.00;;
438;SDS011;206;48.782;9.252;2022-07-10T02:12:01;5.30;;;5.00;;
438;SDS011;206;48.782;9.252;2022-07-10T02:14:27;5.10;;;4.80;;
438;SDS011;206;48.782;9.252;2022-07-10T02:16:52;11.90;;;5.00;;
438;SDS011;206;48.782;9.252;2022-07-10T02:19:18;5.83;;;5.53;;
438;SDS011;206;48.782;9.252;2022-07-10T02:21:44;5.77;;;5.30;;
438;SDS011;206;48.782;9.252;2022-07-10T02:24:11;5.07;;;4.77;;
438;SDS011;206;48.782;9.252;2022-07-10T02:26:36;8.33;;;5.00;;
438;SDS011;206;48.782;9.252;2022-07-10T02:29:02;5.63;;;5.33;;
438;SDS011;206;48.782;9.252;2022-07-10T02:31:27;5.53;;;5.23;;
438;SDS011;206;48.782;9.252;2022-07-10T02:33:53;5.40;;;5.10;;
438;SDS011;206;48.782;9.252;2022-07-10T02:36:19;5.50;;;5.20;;
438;SDS011;206;48.782;9.252;2022-07-10T02:38:44;5.83;;;5.53;;
438;SDS011;206;48.782;9.252;2022-07-10T02:41:10;6.37;;;6.00;;
438;SDS011;206;48.782;9.252;2022-07-10T02:43:35;8.77;;;6.77;;
438;SDS011;206;48.782;9.252;2022-07-10T02:46:01;8.67;;;8.17;;
438;SDS011;206;48.782;9.252;2022-07-10T02:48:27;7.40;;;7.00;;
438;SDS011;206;48.782;9.252;2022-07-10T02:50:53;8.03;;;7.63;;
438;SDS011;206;48.782;9.252;2022-07-10T02:53:19;10.90;;;6.80;;
438;SDS011;206;48.782;9.252;2022-07-10T02:55:44;8.03;;;7.50;;
438;SDS011;206;48.782;9.252;2022-07-10T02:58:10;8.67;;;7.97;;
438;SDS011;206;48.782;9.252;2022-07-10T03:00:36;9.50;;;8.70;;
438;SDS011;206;48.782;9.252;2022-07-10T03:03:02;8.83;;;8.33;;
438;SDS011;206;48.782;9.252;2022-07-10T03:05:28;8.77;;;8.13;;
438;SDS011;206;48.782;9.252;2022-07-10T03:07:53;10.77;;;10.17;;
438;SDS011;206;48.782;9.252;2022-07-10T03:10:19;13.27;;;8.80;;
438;SDS011;206;48.782;9.252;2022-07-10T03:12:45;9.30;;;8.80;;
438;SDS011;206;48.782;9.252;2022-07-10T03:15:11;10.10;;;9.60;;
438;SDS011;206;48.782;9.252;2022-07-10T03:17:38;10.60;;;10.03;;
438;SDS011;206;48.782;9.252;2022-07-10T03:20:04;9.80;;;9.17;;
438;SDS011;206;48.782;9.252;2022-07-10T03:22:31;10.10;;;9.47;;
438;SDS011;206;48.782;9.252;2022-07-10T03:24:57;10.33;;;9.60;;
438;SDS011;206;48.782;9.252;2022-07-10T03:27:23;11.70;;;9.80;;
438;SDS011;206;48.782;9.252;2022-07-10T03:29:49;12.23;;;9.57;;
438;SDS011;206;48.782;9.252;2022-07-10T03:32:14;9.53;;;9.03;;
438;SDS011;206;48.782;9.252;2022-07-10T03:34:40;9.80;;;7.53;;
438;SDS011;206;48.782;9.252;2022-07-10T03:37:05;9.13;;;8.63;;
438;SDS011;206;48.782;9.252;2022-07-10T03:39:31;9.97;;;9.47;;
438;SDS011;206;48.782;9.252;2022-07-10T03:41:57;9.47;;;8.53;;
438;SDS011;206;48.782;9.252;2022-07-10T03:44:23;8.83;;;8.27;;
438;SDS011;206;48.782;9.252;2022-07-10T03:46:48;8.40;;;7.90;;
438;SDS011;206;48.782;9.252;2022-07-10T03:49:14;10.13;;;8.27;;
438;SDS011;206;48.782;9.252;2022-07-10T03:51:39;8.97;;;8.47;;
438;SDS011;206;48.782;9.252;2022-07-10T03:54:05;9.47;;;7.50;;
438;SDS011;206;48.782;9.252;2022-07-10T03:56:31;9.03;;;8.53;;
438;SDS011;206;48.782;9.252;2022-07-10T03:59:15;10.83;;;8.53;;
438;SDS011;206;48.782;9.252;2022-07-10T04:01:41;8.43;;;7.80;;
438;SDS011;206;48.782;9.252;2022-07-10T04:04:06;8.23;;;7.83;;
438;SDS011;206;48.782;9.252;2022-07-10T04:06:32;10.83;;;8.40;;
438;SDS011;206;48.782;9.252;2022-07-10T04:08:58;9.30;;;7.90;;
438;SDS011;206;48.782;9.252;2022-07-10T04:11:23;7.90;;;7.40;;
438;SDS011;206;48.782;9.252;2022-07-10T04:13:49;8.83;;;8.33;;
438;SDS011;206;48.782;9.252;2022-07-10T04:16:14;8.70;;;7.40;;
438;SDS011;206;48.782;9.252;2022-07-10T04:18:40;8.00;;;7.53;;
438;SDS011;206;48.782;9.252;2022-07-10T04:21:06;9.13;;;8.63;;
438;SDS011;206;48.782;9.252;2022-07-10T04:23:32;10.63;;;7.57;;
438;SDS011;206;48.782;9.252;2022-07-10T04:25:58;8.70;;;7.27;;
438;SDS011;206;48.782;9.252;2022-07-10T04:28:24;7.50;;;7.10;;
438;SDS011;206;48.782;9.252;2022-07-10T04:30:49;10.57;;;7.73;;
438;SDS011;206;48.782;9.252;2022-07-10T04:33:15;8.20;;;7.20;;
438;SDS011;206;48.782;9.252;2022-07-10T04:35:40;10.33;;;7.93;;
438;SDS011;206;48.782;9.252;2022-07-10T04:38:06;7.53;;;7.00;;
438;SDS011;206;48.782;9.252;2022-07-10T04:40:32;7.83;;;7.00;;
438;SDS011;206;48.782;9.252;2022-07-10T04:42:57;8.80;;;8.10;;
438;SDS011;206;48.782;9.252;2022-07-10T04:45:23;6.63;;;6.27;;
438;SDS011;206;48.782;9.252;2022-07-10T04:47:48;8.43;;;6.10;;
438;SDS011;206;48.782;9.252;2022-07-10T04:50:14;5.73;;;4.90;;
438;SDS011;206;48.782;9.252;2022-07-10T04:52:40;5.63;;;5.20;;
438;SDS011;206;48.782;9.252;2022-07-10T04:55:05;6.57;;;4.20;;
438;SDS011;206;48.782;9.252;2022-07-10T04:57:31;5.53;;;4.53;;
438;SDS011;206;48.782;9.252;2022-07-10T04:59:57;4.93;;;4.63;;
438;SDS011;206;48.782;9.252;2022-07-10T05:02:23;6.07;;;4.53;;
438;SDS011;206;48.782;9.252;2022-07-10T05:04:48;5.23;;;4.93;;
438;SDS011;206;48.782;9.252;2022-07-10T05:07:14;8.33;;;5.07;;
438;SDS011;206;48.782;9.252;2022-07-10T05:09:40;5.00;;;4.47;;
438;SDS011;206;48.782;9.252;2022-07-10T05:12:06;4.80;;;4.50;;
438;SDS011;206;48.782;9.252;2022-07-10T05:14:32;5.20;;;4.90;;
438;SDS011;206;48.782;9.252;2022-07-10T05:16:57;4.87;;;4.30;;
438;SDS011;206;48.782;9.252;2022-07-10T05:19:23;6.37;;;4.97;;
438;SDS011;206;48.782;9.252;2022-07-10T05:21:49;5.80;;;5.50;;
438;SDS011;206;48.782;9.252;2022-07-10T05:24:14;5.23;;;4.90;;
438;SDS011;206;48.782;9.252;2022-07-10T05:26:40;5.50;;;5.23;;
438;SDS011;206;48.782;9.252;2022-07-10T05:29:05;5.00;;;4.33;;
438;SDS011;206;48.782;9.252;2022-07-10T05:31:31;6.27;;;4.50;;
438;SDS011;206;48.782;9.252;2022-07-10T05:33:57;4.77;;;4.47;;
438;SDS011;206;48.782;9.252;2022-07-10T05:36:22;6.97;;;3.87;;
438;SDS011;206;48.782;9.252;2022-07-10T05:38:48;4.63;;;3.53;;
438;SDS011;206;48.782;9.252;2022-07-10T05:41:13;4.63;;;3.40;;
438;SDS011;206;48.782;9.252;2022-07-10T05:43:39;6.63;;;3.60;;
438;SDS011;206;48.782;9.252;2022-07-10T05:46:05;3.30;;;3.10;;
438;SDS011;206;48.782;9.252;2022-07-10T05:48:30;6.33;;;3.40;;
438;SDS011;206;48.782;9.252;2022-07-10T05:50:56;5.60;;;4.53;;
438;SDS011;206;48.782;9.252;2022-07-10T05:53:22;3.00;;;2.80;;
438;SDS011;206;48.782;9.252;2022-07-10T05:55:48;4.90;;;2.90;;
438;SDS011;206;48.782;9.252;2022-07-10T05:58:14;5.07;;;2.87;;
438;SDS011;206;48.782;9.252;2022-07-10T06:00:40;4.07;;;2.60;;
438;SDS011;206;48.782;9.252;2022-07-10T06:03:08;2.90;;;2.70;;
438;SDS011;206;48.782;9.252;2022-07-10T06:05:34;6.63;;;2.83;;
438;SDS011;206;48.782;9.252;2022-07-10T06:08:01;3.73;;;2.40;;
438;SDS011;206;48.782;9.252;2022-07-10T06:10:26;3.40;;;2.43;;
438;SDS011;206;48.782;9.252;2022-07-10T06:12:52;3.67;;;2.17;;
438;SDS011;206;48.782;9.252;2022-07-10T06:15:18;5.23;;;2.27;;
438;SDS011;206;48.782;9.252;2022-07-10T06:17:43;3.10;;;1.90;;
438;SDS011;206;48.782;9.252;2022-07-10T06:20:09;1.87;;;1.83;;
438;SDS011;206;48.782;9.252;2022-07-10T06:22:35;2.37;;;2.23;;
438;SDS011;206;48.782;9.252;2022-07-10T06:25:02;3.23;;;2.90;;
438;SDS011;206;48.782;9.252;2022-07-10T06:27:29;2.70;;;2.07;;
438;SDS011;206;48.782;9.252;2022-07-10T06:29:55;3.60;;;2.27;;
438;SDS011;206;48.782;9.252;2022-07-10T06:32:21;3.97;;;2.03;;
438;SDS011;206;48.782;9.252;2022-07-10T06:34:47;3.67;;;2.00;;
438;SDS011;206;48.782;9.252;2022-07-10T06:37:13;5.00;;;2.37;;
438;SDS011;206;48.782;9.252;2022-07-10T06:39:38;2.53;;;2.10;;
438;SDS011;206;48.782;9.252;2022-07-10T06:42:07;2.97;;;2.43;;
438;SDS011;206;48.782;9.252;2022-07-10T06:44:33;2.27;;;2.07;;
438;SDS011;206;48.782;9.252;2022-07-10T06:46:59;5.43;;;3.10;;
438;SDS011;206;48.782;9.252;2022-07-10T06:49:43;6.27;;;2.40;;
438;SDS011;206;48.782;9.252;2022-07-10T06:52:11;3.53;;;2.07;;
438;SDS011;206;48.782;9.252;2022-07-10T06:54:37;2.90;;;2.73;;
438;SDS011;206;48.782;9.252;2022-07-10T06:57:02;4.30;;;2.20;;
438;SDS011;206;48.782;9.252;2022-07-10T06:59:28;7.30;;;2.73;;
438;SDS011;206;48.782;9.252;2022-07-10T07:01:54;3.50;;;2.10;;
438;SDS011;206;48.782;9.252;2022-07-10T07:04:19;5.10;;;2.20;;
438;SDS011;206;48.782;9.252;2022-07-10T07:06:45;8.07;;;2.43;;
438;SDS011;206;48.782;9.252;2022-07-10T07:09:11;3.23;;;1.90;;
438;SDS011;206;48.782;9.252;2022-07-10T07:11:36;2.40;;;2.20;;
438;SDS011;206;48.782;9.252;2022-07-10T07:14:02;5.57;;;2.10;;
438;SDS011;206;48.782;9.252;2022-07-10T07:16:28;7.50;;;4.03;;
438;SDS011;206;48.782;9.252;2022-07-10T07:19:04;2.90;;;1.70;;
438;SDS011;206;48.782;9.252;2022-07-10T07:21:31;2.13;;;1.73;;
438;SDS011;206;48.782;9.252;2022-07-10T07:24:15;4.70;;;1.83;;
438;SDS011;206;48.782;9.252;2022-07-10T07:26:44;3.97;;;1.60;;
438;SDS011;206;48.782;9.252;2022-07-10T07:29:12;5.30;;;1.83;;
438;SDS011;206;48.782;9.252;2022-07-10T07:31:41;4.73;;;1.83;;
438;SDS011;206;48.782;9.252;2022-07-10T07:34:07;5.83;;;2.83;;
438;SDS011;206;48.782;9.252;2022-07-10T07:36:33;1.73;;;1.63;;
438;SDS011;206;48.782;9.252;2022-07-10T07:38:59;3.33;;;2.10;;
438;SDS011;206;48.782;9.252;2022-07-10T07:41:24;2.37;;;1.80;;
438;SDS011;206;48.782;9.252;2022-07-10T07:43:50;5.00;;;2.40;;
438;SDS011;206;48.782;9.252;2022-07-10T07:46:17;4.13;;;3.20;;
438;SDS011;206;48.782;9.252;2022-07-10T07:48:43;2.80;;;1.97;;
438;SDS011;206;48.782;9.252;2022-07-10T07:51:09;2.50;;;1.40;;
438;SDS011;206;48.782;9.252;2022-07-10T07:53:35;4.93;;;2.40;;
438;SDS011;206;48.782;9.252;2022-07-10T07:56:00;5.77;;;1.77;;
438;SDS011;206;48.782;9.252;2022-07-10T07:58:26;3.90;;;2.20;;
438;SDS011;206;48.782;9.252;2022-07-10T08:00:52;4.07;;;2.43;;
438;SDS011;206;48.782;9.252;2022-07-10T08:03:17;6.70;;;2.67;;
438;SDS011;206;48.782;9.252;2022-07-10T08:05:43;2.33;;;1.73;;
438;SDS011;206;48.782;9.252;2022-07-10T08:08:09;4.53;;;1.53;;
438;SDS011;206;48.782;9.252;2022-07-10T08:10:35;2.03;;;1.73;;
438;SDS011;206;48.782;9.252;2022-07-10T08:13:01;7.50;;;1.67;;
438;SDS011;206;48.782;9.252;2022-07-10T08:15:28;10.13;;;2.33;;
438;SDS011;206;48.782;9.252;2022-07-10T08:17:56;5.40;;;2.40;;
438;SDS011;206;48.782;9.252;2022-07-10T08:20:24;2.03;;;1.40;;
438;SDS011;206;48.782;9.252;2022-07-10T08:22:50;2.70;;;1.30;;
438;SDS011;206;48.782;9.252;2022-07-10T08:25:19;1.63;;;1.53;;
438;SDS011;206;48.782;9.252;2022-07-10T08:27:45;3.47;;;2.33;;
438;SDS011;206;48.782;9.252;2022-07-10T08:30:11;4.60;;;2.00;;
438;SDS011;206;48.782;9.252;2022-07-10T08:32:38;3.67;;;1.60;;
438;SDS011;206;48.782;9.252;2022-07-10T08:35:05;3.63;;;1.40;;
438;SDS011;206;48.782;9.252;2022-07-10T08:37:38;12.17;;;1.80;;
438;SDS011;206;48.782;9.252;2022-07-10T08:40:05;2.00;;;1.47;;
438;SDS011;206;48.782;9.252;2022-07-10T08:42:33;4.90;;;2.00;;
438;SDS011;206;48.782;9.252;2022-07-10T08:44:59;2.73;;;1.50;;
438;SDS011;206;48.782;9.252;2022-07-10T08:47:24;2.40;;;2.00;;
438;SDS011;206;48.782;9.252;2022-07-10T08:49:50;4.00;;;1.70;;
438;SDS011;206;48.782;9.252;2022-07-10T08:52:26;2.43;;;1.70;;
438;SDS011;206;48.782;9.252;2022-07-10T08:55:23;2.10;;;1.63;;
438;SDS011;206;48.782;9.252;2022-07-10T08:57:50;5.10;;;2.80;;
438;SDS011;206;48.782;9.252;2022-07-10T09:00:17;5.10;;;1.77;;
438;SDS011;206;48.782;9.252;2022-07-10T09:02:43;4.33;;;1.83;;
438;SDS011;206;48.782;9.252;2022-07-10T09:05:08;1.87;;;1.50;;
438;SDS011;206;48.782;9.252;2022-07-10T09:07:35;2.90;;;1.63;;
438;SDS011;206;48.782;9.252;2022-07-10T09:10:05;3.10;;;1.63;;
438;SDS011;206;48.782;9.252;2022-07-10T09:12:49;3.30;;;1.20;;
438;SDS011;206;48.782;9.252;2022-07-10T09:15:16;5.47;;;2.27;;
438;SDS011;206;48.782;9.252;2022-07-10T09:17:49;4.27;;;1.40;;
438;SDS011;206;48.782;9.252;2022-07-10T09:20:29;3.23;;;1.87;;
438;SDS011;206;48.782;9.252;2022-07-10T09:22:59;4.67;;;1.43;;
438;SDS011;206;48.782;9.252;2022-07-10T09:25:44;2.00;;;1.17;;
438;SDS011;206;48.782;9.252;2022-07-10T09:28:16;1.67;;;1.27;;
438;SDS011;206;48.782;9.252;2022-07-10T09:30:43;3.17;;;1.20;;
438;SDS011;206;48.782;9.252;2022-07-10T09:33:17;1.83;;;1.17;;
438;SDS011;206;48.782;9.252;2022-07-10T09:38:47;4.50;;;1.50;;
438;SDS011;206;48.782;9.252;2022-07-10T09:41:19;2.83;;;2.00;;
438;SDS011;206;48.782;9.252;2022-07-10T09:43:58;1.63;;;1.20;;
438;SDS011;206;48.782;9.252;2022-07-10T09:46:32;2.23;;;1.70;;
438;SDS011;206;48.782;9.252;2022-07-10T09:51:40;9.40;;;4.60;;
438;SDS011;206;48.782;9.252;2022-07-10T09:54:08;3.53;;;1.40;;
438;SDS011;206;48.782;9.252;2022-07-10T09:57:00;5.97;;;1.43;;
438;SDS011;206;48.782;9.252;2022-07-10T09:59:29;3.23;;;0.87;;
438;SDS011;206;48.782;9.252;2022-07-10T10:01:57;1.87;;;1.13;;
438;SDS011;206;48.782;9.252;2022-07-10T10:04:25;2.00;;;1.40;;
438;SDS011;206;48.782;9.252;2022-07-10T10:06:58;2.80;;;1.47;;
438;SDS011;206;48.782;9.252;2022-07-10T10:09:29;1.37;;;1.27;;
438;SDS011;206;48.782;9.252;2022-07-10T10:12:16;4.40;;;1.50;;
438;SDS011;206;48.782;9.252;2022-07-10T10:14:45;3.20;;;1.40;;
438;SDS011;206;48.782;9.252;2022-07-10T10:17:11;5.00;;;1.60;;
438;SDS011;206;48.782;9.252;2022-07-10T10:19:37;2.63;;;1.27;;
438;SDS011;206;48.782;9.252;2022-07-10T10:22:26;3.73;;;2.23;;
438;SDS011;206;48.782;9.252;2022-07-10T10:24:54;5.13;;;1.70;;
438;SDS011;206;48.782;9.252;2022-07-10T10:27:20;4.80;;;1.77;;
438;SDS011;206;48.782;9.252;2022-07-10T10:29:47;2.47;;;1.60;;
438;SDS011;206;48.782;9.252;2022-07-10T10:32:14;4.83;;;1.23;;
438;SDS011;206;48.782;9.252;2022-07-10T10:34:42;1.60;;;1.30;;
438;SDS011;206;48.782;9.252;2022-07-10T10:37:39;3.53;;;1.53;;
438;SDS011;206;48.782;9.252;2022-07-10T10:40:10;7.80;;;1.50;;
438;SDS011;206;48.782;9.252;2022-07-10T10:42:56;1.77;;;1.43;;
438;SDS011;206;48.782;9.252;2022-07-10T10:47:57;6.00;;;1.73;;
438;SDS011;206;48.782;9.252;2022-07-10T10:53:22;2.53;;;1.70;;
438;SDS011;206;48.782;9.252;2022-07-10T10:58:38;1.50;;;1.40;;
438;SDS011;206;48.782;9.252;2022-07-10T11:01:23;2.97;;;1.70;;
438;SDS011;206;48.782;9.252;2022-07-10T11:06:40;2.43;;;1.40;;
438;SDS011;206;48.782;9.252;2022-07-10T11:09:22;3.63;;;1.40;;
438;SDS011;206;48.782;9.252;2022-07-10T11:12:08;4.30;;;1.60;;
438;SDS011;206;48.782;9.252;2022-07-10T11:14:40;2.30;;;1.00;;
438;SDS011;206;48.782;9.252;2022-07-10T11:17:14;1.90;;;1.30;;
438;SDS011;206;48.782;9.252;2022-07-10T11:19:40;6.10;;;2.40;;
438;SDS011;206;48.782;9.252;2022-07-10T11:27:52;3.73;;;1.70;;
438;SDS011;206;48.782;9.252;2022-07-10T11:30:29;2.47;;;1.63;;
438;SDS011;206;48.782;9.252;2022-07-10T11:33:12;2.60;;;1.40;;
438;SDS011;206;48.782;9.252;2022-07-10T11:35:39;3.30;;;1.20;;
438;SDS011;206;48.782;9.252;2022-07-10T11:38:05;1.43;;;1.30;;
438;SDS011;206;48.782;9.252;2022-07-10T11:40:35;3.80;;;1.57;;
438;SDS011;206;48.782;9.252;2022-07-10T11:43:03;1.90;;;1.33;;
438;SDS011;206;48.782;9.252;2022-07-10T11:45:34;3.23;;;1.40;;
438;SDS011;206;48.782;9.252;2022-07-10T11:48:06;3.07;;;1.70;;
438;SDS011;206;48.782;9.252;2022-07-10T11:50:36;1.37;;;1.30;;
438;SDS011;206;48.782;9.252;2022-07-10T11:53:03;1.97;;;1.30;;
438;SDS011;206;48.782;9.252;2022-07-10T11:55:30;1.73;;;1.00;;
438;SDS011;206;48.782;9.252;2022-07-10T11:58:11;5.20;;;1.23;;
438;SDS011;206;48.782;9.252;2022-07-10T12:00:44;4.70;;;1.50;;
438;SDS011;206;48.782;9.252;2022-07-10T12:03:22;2.60;;;1.60;;
438;SDS011;206;48.782;9.252;2022-07-10T12:05:48;1.90;;;1.20;;
438;SDS011;206;48.782;9.252;2022-07-10T12:08:15;1.80;;;1.13;;
438;SDS011;206;48.782;9.252;2022-07-10T12:10:42;3.73;;;1.40;;
438;SDS011;206;48.782;9.252;2022-07-10T12:13:12;2.00;;;0.93;;
438;SDS011;206;48.782;9.252;2022-07-10T12:15:40;4.10;;;1.27;;
438;SDS011;206;48.782;9.252;2022-07-10T12:18:15;1.60;;;1.20;;
438;SDS011;206;48.782;9.252;2022-07-10T12:20:43;3.33;;;1.27;;
438;SDS011;206;48.782;9.252;2022-07-10T12:23:13;1.33;;;1.00;;
438;SDS011;206;48.782;9.252;2022-07-10T12:25:45;1.50;;;1.10;;
438;SDS011;206;48.782;9.252;2022-07-10T12:28:15;2.20;;;1.23;;
438;SDS011;206;48.782;9.252;2022-07-10T12:33:14;3.50;;;1.20;;
438;SDS011;206;48.782;9.252;2022-07-10T12:38:19;2.43;;;1.47;;
438;SDS011;206;48.782;9.252;2022-07-10T12:41:11;1.40;;;1.03;;
438;SDS011;206;48.782;9.252;2022-07-10T12:43:39;2.37;;;1.00;;
438;SDS011;206;48.782;9.252;2022-07-10T12:46:15;3.03;;;1.27;;
438;SDS011;206;48.782;9.252;2022-07-10T12:49:09;4.37;;;1.50;;
438;SDS011;206;48.782;9.252;2022-07-10T12:51:46;2.67;;;0.80;;
438;SDS011;206;48.782;9.252;2022-07-10T12:54:34;2.60;;;1.47;;
438;SDS011;206;48.782;9.252;2022-07-10T12:57:02;1.63;;;0.93;;
438;SDS011;206;48.782;9.252;2022-07-10T12:59:31;1.97;;;0.90;;
438;SDS011;206;48.782;9.252;2022-07-10T13:01:59;2.33;;;1.00;;
438;SDS011;206;48.782;9.252;2022-07-10T13:04:56;2.77;;;0.67;;
438;SDS011;206;48.782;9.252;2022-07-10T13:08:03;1.57;;;1.00;;
438;SDS011;206;48.782;9.252;2022-07-10T13:10:15;1.40;;;0.90;;
438;SDS011;206;48.782;9.252;2022-07-10T13:12:41;1.63;;;1.30;;
438;SDS011;206;48.782;9.252;2022-07-10T13:15:06;2.30;;;1.07;;
438;SDS011;206;48.782;9.252;2022-07-10T13:17:33;3.13;;;0.87;;
438;SDS011;206;48.782;9.252;2022-07-10T13:19:58;4.83;;;1.23;;
438;SDS011;206;48.782;9.252;2022-07-10T13:22:24;3.93;;;0.90;;
438;SDS011;206;48.782;9.252;2022-07-10T13:24:51;2.43;;;1.13;;
438;SDS011;206;48.782;9.252;2022-07-10T13:27:16;2.30;;;1.47;;
438;SDS011;206;48.782;9.252;2022-07-10T13:29:42;1.40;;;0.80;;
438;SDS011;206;48.782;9.252;2022-07-10T13:32:08;1.50;;;1.10;;
438;SDS011;206;48.782;9.252;2022-07-10T13:34:33;2.10;;;1.13;;
438;SDS011;206;48.782;9.252;2022-07-10T13:37:01;1.70;;;0.80;;
438;SDS011;206;48.782;9.252;2022-07-10T13:39:28;2.30;;;0.93;;
438;SDS011;206;48.782;9.252;2022-07-10T13:41:53;2.00;;;1.13;;
438;SDS011;206;48.782;9.252;2022-07-10T13:44:19;1.73;;;0.80;;
438;SDS011;206;48.782;9.252;2022-07-10T13:46:45;4.43;;;1.40;;
438;SDS011;206;48.782;9.252;2022-07-10T13:49:11;1.70;;;0.90;;
438;SDS011;206;48.782;9.252;2022-07-10T13:51:36;3.13;;;1.43;;
438;SDS011;206;48.782;9.252;2022-07-10T13:54:02;2.75;;;1.05;;
438;SDS011;206;48.782;9.252;2022-07-10T13:56:27;1.43;;;0.90;;
438;SDS011;206;48.782;9.252;2022-07-10T13:58:54;5.03;;;1.40;;
438;SDS011;206;48.782;9.252;2022-07-10T14:01:20;2.97;;;1.07;;
438;SDS011;206;48.782;9.252;2022-07-10T14:03:46;1.93;;;0.90;;
438;SDS011;206;48.782;9.252;2022-07-10T14:06:15;3.70;;;1.10;;
438;SDS011;206;48.782;9.252;2022-07-10T14:08:41;1.53;;;0.80;;
438;SDS011;206;48.782;9.252;2022-07-10T14:11:06;2.30;;;1.10;;
438;SDS011;206;48.782;9.252;2022-07-10T14:13:32;4.90;;;1.00;;
438;SDS011;206;48.782;9.252;2022-07-10T14:15:57;1.27;;;0.80;;
438;SDS011;206;48.782;9.252;2022-07-10T14:18:23;4.67;;;2.47;;
438;SDS011;206;48.782;9.252;2022-07-10T14:21:03;3.43;;;1.37;;
438;SDS011;206;48.782;9.252;2022-07-10T14:23:30;1.43;;;1.03;;
438;SDS011;206;48.782;9.252;2022-07-10T14:25:59;2.30;;;1.23;;
438;SDS011;206;48.782;9.252;2022-07-10T14:28:24;3.03;;;1.33;;
438;SDS011;206;48.782;9.252;2022-07-10T14:30:50;1.80;;;1.10;;
438;SDS011;206;48.782;9.252;2022-07-10T14:33:16;1.73;;;0.80;;
438;SDS011;206;48.782;9.252;2022-07-10T14:35:42;1.87;;;1.10;;
438;SDS011;206;48.782;9.252;2022-07-10T14:38:08;2.57;;;0.97;;
438;SDS011;206;48.782;9.252;2022-07-10T14:40:34;2.17;;;1.37;;
438;SDS011;206;48.782;9.252;2022-07-10T14:42:59;2.30;;;1.20;;
438;SDS011;206;48.782;9.252;2022-07-10T14:45:25;1.23;;;0.80;;
438;SDS011;206;48.782;9.252;2022-07-10T14:47:51;2.70;;;0.97;;
438;SDS011;206;48.782;9.252;2022-07-10T14:50:16;3.17;;;0.97;;
438;SDS011;206;48.782;9.252;2022-07-10T14:52:42;2.10;;;0.80;;
438;SDS011;206;48.782;9.252;2022-07-10T14:55:09;3.97;;;1.10;;
438;SDS011;206;48.782;9.252;2022-07-10T14:57:34;2.60;;;1.10;;
438;SDS011;206;48.782;9.252;2022-07-10T15:00:00;2.20;;;1.70;;
438;SDS011;206;48.782;9.252;2022-07-10T15:02:26;1.57;;;0.83;;
438;SDS011;206;48.782;9.252;2022-07-10T15:04:51;4.90;;;1.27;;
438;SDS011;206;48.782;9.252;2022-07-10T15:07:17;3.30;;;1.23;;
438;SDS011;206;48.782;9.252;2022-07-10T15:09:43;1.77;;;0.90;;
438;SDS011;206;48.782;9.252;2022-07-10T15:12:09;1.27;;;0.80;;
438;SDS011;206;48.782;9.252;2022-07-10T15:14:35;3.10;;;1.10;;
438;SDS011;206;48.782;9.252;2022-07-10T15:17:00;1.43;;;0.97;;
438;SDS011;206;48.782;9.252;2022-07-10T15:19:26;1.77;;;1.00;;
438;SDS011;206;48.782;9.252;2022-07-10T15:21:52;1.73;;;0.70;;
438;SDS011;206;48.782;9.252;2022-07-10T15:24:17;2.10;;;1.10;;
438;SDS011;206;48.782;9.252;2022-07-10T15:26:44;2.20;;;0.90;;
438;SDS011;206;48.782;9.252;2022-07-10T15:29:10;2.87;;;1.07;;
438;SDS011;206;48.782;9.252;2022-07-10T15:31:35;1.77;;;1.00;;
438;SDS011;206;48.782;9.252;2022-07-10T15:34:08;2.00;;;1.00;;
438;SDS011;206;48.782;9.252;2022-07-10T15:36:37;2.13;;;1.10;;
438;SDS011;206;48.782;9.252;2022-07-10T15:39:02;2.30;;;0.93;;
438;SDS011;206;48.782;9.252;2022-07-10T15:41:28;2.17;;;1.20;;
438;SDS011;206;48.782;9.252;2022-07-10T15:43:54;1.83;;;0.90;;
438;SDS011;206;48.782;9.252;2022-07-10T15:46:20;1.53;;;1.10;;
438;SDS011;206;48.782;9.252;2022-07-10T15:48:45;1.77;;;1.10;;
438;SDS011;206;48.782;9.252;2022-07-10T15:51:11;2.17;;;0.90;;
438;SDS011;206;48.782;9.252;2022-07-10T15:53:39;2.67;;;1.30;;
438;SDS011;206;48.782;9.252;2022-07-10T15:56:05;1.87;;;0.60;;
438;SDS011;206;48.782;9.252;2022-07-10T15:58:31;4.77;;;1.17;;
438;SDS011;206;48.782;9.252;2022-07-10T16:00:57;1.53;;;0.90;;
438;SDS011;206;48.782;9.252;2022-07-10T16:03:23;1.10;;;0.80;;
438;SDS011;206;48.782;9.252;2022-07-10T16:05:49;1.47;;;0.90;;
438;SDS011;206;48.782;9.252;2022-07-10T16:08:14;2.80;;;1.10;;
438;SDS011;206;48.782;9.252;2022-07-10T16:10:43;1.70;;;0.80;;
438;SDS011;206;48.782;9.252;2022-07-10T16:13:08;2.93;;;1.57;;
438;SDS011;206;48.782;9.252;2022-07-10T16:15:36;2.70;;;1.30;;